sensor_id;sensor_type;location;lat;lon;timestamp;pressure;altitude;pressure_sealevel;temperature
31921;BMP280;66485;52.128;4.436;2023-03-14T00:01:54;98876.81;;;17.46
31921;BMP280;66485;52.128;4.436;2023-03-14T00:04:19;98863.88;;;17.41
31921;BMP280;66485;52.128;4.436;2023-03-14T00:06:44;98867.81;;;17.40
31921;BMP280;66485;52.128;4.436;2023-03-14T00:09:12;98859.53;;;17.44
31921;BMP280;66485;52.128;4.436;2023-03-14T00:11:37;98867.34;;;17.41
31921;BMP280;66485;52.128;4.436;2023-03-14T00:14:03;98871.25;;;17.40
31921;BMP280;66485;52.128;4.436;2023-03-14T00:16:28;98871.25;;;17.40
31921;BMP280;66485;52.128;4.436;2023-03-14T00:18:53;98858.47;;;17.41
31921;BMP280;66485;52.128;4.436;2023-03-14T00:21:19;98862.41;;;17.40
31921;BMP280;66485;52.128;4.436;2023-03-14T00:23:44;98862.41;;;17.40
31921;BMP280;66485;52.128;4.436;2023-03-14T00:26:15;98855.66;;;17.35
31921;BMP280;66485;52.128;4.436;2023-03-14T00:28:42;98866.78;;;17.37
31921;BMP280;66485;52.128;4.436;2023-03-14T00:31:09;98866.78;;;17.37
31921;BMP280;66485;52.128;4.436;2023-03-14T00:33:35;98876.09;;;17.36
31921;BMP280;66485;52.128;4.436;2023-03-14T00:36:03;98882.56;;;17.30
31921;BMP280;66485;52.128;4.436;2023-03-14T00:38:30;98868.56;;;17.31
31921;BMP280;66485;52.128;4.436;2023-03-14T00:40:55;98873.22;;;17.31
31921;BMP280;66485;52.128;4.436;2023-03-14T00:43:21;98873.22;;;17.31
31921;BMP280;66485;52.128;4.436;2023-03-14T00:45:51;98859.59;;;17.25
31921;BMP280;66485;52.128;4.436;2023-03-14T00:48:17;98865.28;;;17.27
31921;BMP280;66485;52.128;4.436;2023-03-14T00:50:43;98869.75;;;17.30
31921;BMP280;66485;52.128;4.436;2023-03-14T00:53:09;98869.75;;;17.30
31921;BMP280;66485;52.128;4.436;2023-03-14T00:55:39;98884.53;;;17.29
31921;BMP280;66485;52.128;4.436;2023-03-14T00:58:05;98871.75;;;17.30
31921;BMP280;66485;52.128;4.436;2023-03-14T01:00:31;98866.34;;;17.30
31921;BMP280;66485;52.128;4.436;2023-03-14T01:02:57;98872.19;;;17.28
31921;BMP280;66485;52.128;4.436;2023-03-14T01:05:22;98866.78;;;17.28
31921;BMP280;66485;52.128;4.436;2023-03-14T01:07:48;98867.53;;;17.29
31921;BMP280;66485;52.128;4.436;2023-03-14T01:10:13;98867.53;;;17.29
31921;BMP280;66485;52.128;4.436;2023-03-14T01:12:38;98872.38;;;17.25
31921;BMP280;66485;52.128;4.436;2023-03-14T01:15:04;98867.41;;;17.23
31921;BMP280;66485;52.128;4.436;2023-03-14T01:17:29;98878.97;;;17.24
31921;BMP280;66485;52.128;4.436;2023-03-14T01:19:55;98868.16;;;17.24
31921;BMP280;66485;52.128;4.436;2023-03-14T01:22:20;98864.69;;;17.23
31921;BMP280;66485;52.128;4.436;2023-03-14T01:24:46;98854.03;;;17.20
31921;BMP280;66485;52.128;4.436;2023-03-14T01:27:12;98856.72;;;17.20
31921;BMP280;66485;52.128;4.436;2023-03-14T01:29:37;98848.88;;;17.22
31921;BMP280;66485;52.128;4.436;2023-03-14T01:32:03;98848.88;;;17.22
31921;BMP280;66485;52.128;4.436;2023-03-14T01:34:28;98858.38;;;17.17
31921;BMP280;66485;52.128;4.436;2023-03-14T01:36:54;98868.75;;;17.19
31921;BMP280;66485;52.128;4.436;2023-03-14T01:39:19;98868.44;;;17.17
31921;BMP280;66485;52.128;4.436;2023-03-14T01:41:44;98872.66;;;17.18
31921;BMP280;66485;52.128;4.436;2023-03-14T01:44:12;98867.53;;;17.20
31921;BMP280;66485;52.128;4.436;2023-03-14T01:46:41;98867.53;;;17.20
31921;BMP280;66485;52.128;4.436;2023-03-14T01:54:50;98853.56;;;17.12
31921;BMP280;66485;52.128;4.436;2023-03-14T01:57:46;98845.78;;;17.14
31921;BMP280;66485;52.128;4.436;2023-03-14T02:00:07;98850.13;;;17.12
31921;BMP280;66485;52.128;4.436;2023-03-14T02:02:37;98851.78;;;17.09
31921;BMP280;66485;52.128;4.436;2023-03-14T02:05:03;98843.50;;;17.13
31921;BMP280;66485;52.128;4.436;2023-03-14T02:07:40;98825.47;;;17.10
31921;BMP280;66485;52.128;4.436;2023-03-14T02:10:11;98833.13;;;17.11
31921;BMP280;66485;52.128;4.436;2023-03-14T02:12:37;98825.00;;;17.11
31921;BMP280;66485;52.128;4.436;2023-03-14T02:15:03;98825.00;;;17.11
31921;BMP280;66485;52.128;4.436;2023-03-14T02:17:28;98824.25;;;17.11
31921;BMP280;66485;52.128;4.436;2023-03-14T02:20:07;98815.56;;;17.07
31921;BMP280;66485;52.128;4.436;2023-03-14T02:22:37;98820.97;;;17.07
31921;BMP280;66485;52.128;4.436;2023-03-14T02:27:40;98826.38;;;17.07
31921;BMP280;66485;52.128;4.436;2023-03-14T02:30:13;98826.38;;;17.07
31921;BMP280;66485;52.128;4.436;2023-03-14T02:32:43;98824.72;;;17.09
31921;BMP280;66485;52.128;4.436;2023-03-14T02:35:11;98825.63;;;17.06
31921;BMP280;66485;52.128;4.436;2023-03-14T02:37:46;98819.19;;;17.03
31921;BMP280;66485;52.128;4.436;2023-03-14T02:40:12;98819.19;;;17.03
31921;BMP280;66485;52.128;4.436;2023-03-14T02:42:38;98821.72;;;17.07
31921;BMP280;66485;52.128;4.436;2023-03-14T02:47:37;98823.38;;;17.05
31921;BMP280;66485;52.128;4.436;2023-03-14T02:50:08;98823.38;;;17.05
31921;BMP280;66485;52.128;4.436;2023-03-14T02:52:34;98816.94;;;17.02
31921;BMP280;66485;52.128;4.436;2023-03-14T02:54:59;98819.63;;;17.02
31921;BMP280;66485;52.128;4.436;2023-03-14T02:57:24;98810.75;;;17.01
31921;BMP280;66485;52.128;4.436;2023-03-14T02:59:50;98804.16;;;17.02
31921;BMP280;66485;52.128;4.436;2023-03-14T03:02:15;98795.72;;;17.00
31921;BMP280;66485;52.128;4.436;2023-03-14T03:04:41;98797.81;;;17.06
31921;BMP280;66485;52.128;4.436;2023-03-14T03:07:06;98800.84;;;16.98
31921;BMP280;66485;52.128;4.436;2023-03-14T03:09:32;98798.16;;;16.98
31921;BMP280;66485;52.128;4.436;2023-03-14T03:11:57;98802.78;;;16.98
31921;BMP280;66485;52.128;4.436;2023-03-14T03:14:22;98799.19;;;17.01
31921;BMP280;66485;52.128;4.436;2023-03-14T03:16:48;98794.53;;;17.01
31921;BMP280;66485;52.128;4.436;2023-03-14T03:19:13;98788.25;;;17.05
31921;BMP280;66485;52.128;4.436;2023-03-14T03:21:39;98791.38;;;17.03
31921;BMP280;66485;52.128;4.436;2023-03-14T03:24:05;98791.38;;;17.03
31921;BMP280;66485;52.128;4.436;2023-03-14T03:26:33;98796.06;;;16.93
31921;BMP280;66485;52.128;4.436;2023-03-14T03:28:59;98794.09;;;17.03
31921;BMP280;66485;52.128;4.436;2023-03-14T03:31:24;98791.84;;;17.01
31921;BMP280;66485;52.128;4.436;2023-03-14T03:33:50;98791.84;;;17.01
31921;BMP280;66485;52.128;4.436;2023-03-14T03:36:15;98789.72;;;16.96
31921;BMP280;66485;52.128;4.436;2023-03-14T03:38:45;98787.34;;;16.89
31921;BMP280;66485;52.128;4.436;2023-03-14T03:41:10;98793.94;;;16.97
31921;BMP280;66485;52.128;4.436;2023-03-14T03:43:36;98790.03;;;16.98
31921;BMP280;66485;52.128;4.436;2023-03-14T03:46:06;98785.69;;;16.92
31921;BMP280;66485;52.128;4.436;2023-03-14T03:48:31;98789.28;;;16.98
31921;BMP280;66485;52.128;4.436;2023-03-14T03:50:57;98790.47;;;16.97
31921;BMP280;66485;52.128;4.436;2023-03-14T03:53:22;98790.47;;;16.97
31921;BMP280;66485;52.128;4.436;2023-03-14T03:55:47;98796.34;;;16.95
31921;BMP280;66485;52.128;4.436;2023-03-14T03:58:13;98796.34;;;16.95
31921;BMP280;66485;52.128;4.436;2023-03-14T04:00:38;98801.28;;;16.97
31921;BMP280;66485;52.128;4.436;2023-03-14T04:03:04;98805.38;;;16.92
31921;BMP280;66485;52.128;4.436;2023-03-14T04:05:29;98803.25;;;16.96
31921;BMP280;66485;52.128;4.436;2023-03-14T04:07:55;98803.25;;;16.96
31921;BMP280;66485;52.128;4.436;2023-03-14T04:10:20;98814.63;;;17.00
31921;BMP280;66485;52.128;4.436;2023-03-14T04:12:45;98811.06;;;17.03
31921;BMP280;66485;52.128;4.436;2023-03-14T04:15:11;98804.56;;;17.10
31921;BMP280;66485;52.128;4.436;2023-03-14T04:17:36;98799.03;;;17.14
31921;BMP280;66485;52.128;4.436;2023-03-14T04:20:02;98799.03;;;17.14
31921;BMP280;66485;52.128;4.436;2023-03-14T04:22:28;98810.44;;;17.18
31921;BMP280;66485;52.128;4.436;2023-03-14T04:24:53;98810.44;;;17.18
31921;BMP280;66485;52.128;4.436;2023-03-14T04:27:18;98804.28;;;17.17
31921;BMP280;66485;52.128;4.436;2023-03-14T04:29:44;98798.13;;;17.17
31921;BMP280;66485;52.128;4.436;2023-03-14T04:32:09;98792.25;;;17.18
31921;BMP280;66485;52.128;4.436;2023-03-14T04:34:34;98791.69;;;17.14
31921;BMP280;66485;52.128;4.436;2023-03-14T04:37:00;98787.63;;;17.10
31921;BMP280;66485;52.128;4.436;2023-03-14T04:39:25;98786.88;;;17.09
31921;BMP280;66485;52.128;4.436;2023-03-14T04:41:51;98786.56;;;17.07
31921;BMP280;66485;52.128;4.436;2023-03-14T04:44:16;98781.59;;;17.06
31921;BMP280;66485;52.128;4.436;2023-03-14T04:46:41;98782.19;;;17.00
31921;BMP280;66485;52.128;4.436;2023-03-14T04:49:07;98778.00;;;17.09
31921;BMP280;66485;52.128;4.436;2023-03-14T04:51:32;98780.22;;;17.10
31921;BMP280;66485;52.128;4.436;2023-03-14T04:53:57;98781.47;;;17.09
31921;BMP280;66485;52.128;4.436;2023-03-14T04:56:23;98781.47;;;17.09
31921;BMP280;66485;52.128;4.436;2023-03-14T04:58:48;98780.41;;;17.07
31921;BMP280;66485;52.128;4.436;2023-03-14T05:01:13;98789.00;;;17.05
31921;BMP280;66485;52.128;4.436;2023-03-14T05:03:38;98783.59;;;17.05
31921;BMP280;66485;52.128;4.436;2023-03-14T05:06:05;98788.50;;;17.07
31921;BMP280;66485;52.128;4.436;2023-03-14T05:08:30;98796.34;;;17.05
31921;BMP280;66485;52.128;4.436;2023-03-14T05:10:57;98796.34;;;17.05
31921;BMP280;66485;52.128;4.436;2023-03-14T05:13:22;98801.13;;;17.00
31921;BMP280;66485;52.128;4.436;2023-03-14T05:15:48;98801.13;;;17.00
31921;BMP280;66485;52.128;4.436;2023-03-14T05:18:15;98805.94;;;16.96
31921;BMP280;66485;52.128;4.436;2023-03-14T05:20:40;98848.94;;;16.94
31921;BMP280;66485;52.128;4.436;2023-03-14T05:23:08;98852.84;;;16.93
31921;BMP280;66485;52.128;4.436;2023-03-14T05:25:33;98852.84;;;16.93
31921;BMP280;66485;52.128;4.436;2023-03-14T05:27:58;98867.84;;;16.94
31921;BMP280;66485;52.128;4.436;2023-03-14T05:30:24;98869.50;;;16.92
31921;BMP280;66485;52.128;4.436;2023-03-14T05:32:49;98872.78;;;16.87
31921;BMP280;66485;52.128;4.436;2023-03-14T05:35:14;98879.69;;;16.88
31921;BMP280;66485;52.128;4.436;2023-03-14T05:37:40;98879.69;;;16.88
31921;BMP280;66485;52.128;4.436;2023-03-14T05:40:06;98883.44;;;16.81
31921;BMP280;66485;52.128;4.436;2023-03-14T05:42:32;98896.09;;;16.84
31921;BMP280;66485;52.128;4.436;2023-03-14T05:44:57;98901.31;;;16.88
31921;BMP280;66485;52.128;4.436;2023-03-14T05:47:23;98901.31;;;16.88
31921;BMP280;66485;52.128;4.436;2023-03-14T05:49:48;98898.78;;;16.84
31921;BMP280;66485;52.128;4.436;2023-03-14T05:52:14;98922.38;;;16.84
31921;BMP280;66485;52.128;4.436;2023-03-14T05:54:39;98923.56;;;16.83
31921;BMP280;66485;52.128;4.436;2023-03-14T05:57:05;98929.84;;;16.80
31921;BMP280;66485;52.128;4.436;2023-03-14T05:59:30;98938.59;;;16.84
31921;BMP280;66485;52.128;4.436;2023-03-14T06:01:56;98947.88;;;16.83
31921;BMP280;66485;52.128;4.436;2023-03-14T06:04:21;98947.88;;;16.83
31921;BMP280;66485;52.128;4.436;2023-03-14T06:06:46;98954.03;;;16.83
31921;BMP280;66485;52.128;4.436;2023-03-14T06:09:12;98971.91;;;16.81
31921;BMP280;66485;52.128;4.436;2023-03-14T06:11:37;98971.91;;;16.81
31921;BMP280;66485;52.128;4.436;2023-03-14T06:14:02;98984.22;;;16.82
31921;BMP280;66485;52.128;4.436;2023-03-14T06:16:27;98989.19;;;16.83
31921;BMP280;66485;52.128;4.436;2023-03-14T06:18:53;98977.19;;;16.84
31921;BMP280;66485;52.128;4.436;2023-03-14T06:21:18;98977.19;;;16.84
31921;BMP280;66485;52.128;4.436;2023-03-14T06:23:45;98987.50;;;16.77
31921;BMP280;66485;52.128;4.436;2023-03-14T06:26:10;99005.84;;;16.82
31921;BMP280;66485;52.128;4.436;2023-03-14T06:28:37;99017.84;;;16.81
31921;BMP280;66485;52.128;4.436;2023-03-14T06:31:02;99017.84;;;16.81
31921;BMP280;66485;52.128;4.436;2023-03-14T06:33:28;99013.78;;;16.76
31921;BMP280;66485;52.128;4.436;2023-03-14T06:35:54;99023.28;;;16.90
31921;BMP280;66485;52.128;4.436;2023-03-14T06:38:19;99036.97;;;16.95
31921;BMP280;66485;52.128;4.436;2023-03-14T06:40:45;99045.72;;;16.99
31921;BMP280;66485;52.128;4.436;2023-03-14T06:43:10;99045.72;;;16.99
31921;BMP280;66485;52.128;4.436;2023-03-14T06:45:36;99054.44;;;17.03
31921;BMP280;66485;52.128;4.436;2023-03-14T06:48:01;99060.13;;;17.06
31921;BMP280;66485;52.128;4.436;2023-03-14T06:50:27;99060.13;;;17.06
31921;BMP280;66485;52.128;4.436;2023-03-14T06:52:52;99074.88;;;17.05
31921;BMP280;66485;52.128;4.436;2023-03-14T06:55:18;99089.88;;;17.06
31921;BMP280;66485;52.128;4.436;2023-03-14T06:57:43;99110.31;;;17.07
31921;BMP280;66485;52.128;4.436;2023-03-14T07:00:10;99110.31;;;17.07
31921;BMP280;66485;52.128;4.436;2023-03-14T07:02:35;99122.50;;;17.02
31921;BMP280;66485;52.128;4.436;2023-03-14T07:05:00;99122.50;;;17.02
31921;BMP280;66485;52.128;4.436;2023-03-14T07:07:26;99142.94;;;17.03
31921;BMP280;66485;52.128;4.436;2023-03-14T07:09:52;99149.09;;;17.03
31921;BMP280;66485;52.128;4.436;2023-03-14T07:12:17;99160.75;;;17.00
31921;BMP280;66485;52.128;4.436;2023-03-14T07:14:42;99173.56;;;17.00
31921;BMP280;66485;52.128;4.436;2023-03-14T07:17:08;99173.56;;;17.00
31921;BMP280;66485;52.128;4.436;2023-03-14T07:19:33;99189.03;;;16.99
31921;BMP280;66485;52.128;4.436;2023-03-14T07:21:58;99189.03;;;16.99
31921;BMP280;66485;52.128;4.436;2023-03-14T07:24:24;99195.75;;;16.95
31921;BMP280;66485;52.128;4.436;2023-03-14T07:26:49;99223.09;;;16.97
31921;BMP280;66485;52.128;4.436;2023-03-14T07:29:14;99223.09;;;16.97
31921;BMP280;66485;52.128;4.436;2023-03-14T07:31:40;99251.16;;;16.90
31921;BMP280;66485;52.128;4.436;2023-03-14T07:34:05;99257.59;;;16.84
31921;BMP280;66485;52.128;4.436;2023-03-14T07:36:30;99257.59;;;16.84
31921;BMP280;66485;52.128;4.436;2023-03-14T07:38:56;99276.50;;;16.84
31921;BMP280;66485;52.128;4.436;2023-03-14T07:41:21;99294.97;;;16.85
31921;BMP280;66485;52.128;4.436;2023-03-14T07:43:48;99294.97;;;16.85
31921;BMP280;66485;52.128;4.436;2023-03-14T07:46:13;99312.31;;;16.75
31921;BMP280;66485;52.128;4.436;2023-03-14T07:48:39;99323.59;;;16.74
31921;BMP280;66485;52.128;4.436;2023-03-14T07:51:05;99351.66;;;16.76
31921;BMP280;66485;52.128;4.436;2023-03-14T07:53:30;99347.03;;;16.77
31921;BMP280;66485;52.128;4.436;2023-03-14T07:55:56;99369.84;;;16.76
31921;BMP280;66485;52.128;4.436;2023-03-14T07:58:21;99369.84;;;16.76
31921;BMP280;66485;52.128;4.436;2023-03-14T08:00:47;99382.91;;;16.77
31921;BMP280;66485;52.128;4.436;2023-03-14T08:03:13;99395.69;;;16.77
31921;BMP280;66485;52.128;4.436;2023-03-14T08:05:38;99395.69;;;16.77
31921;BMP280;66485;52.128;4.436;2023-03-14T08:08:04;99400.75;;;16.75
31921;BMP280;66485;52.128;4.436;2023-03-14T08:10:30;99423.56;;;16.86
31921;BMP280;66485;52.128;4.436;2023-03-14T08:12:56;99423.56;;;16.86
31921;BMP280;66485;52.128;4.436;2023-03-14T08:15:23;99430.28;;;16.82
31921;BMP280;66485;52.128;4.436;2023-03-14T08:17:49;99463.69;;;16.75
31921;BMP280;66485;52.128;4.436;2023-03-14T08:20:20;99477.00;;;16.70
31921;BMP280;66485;52.128;4.436;2023-03-14T08:22:46;99483.84;;;16.74
31921;BMP280;66485;52.128;4.436;2023-03-14T08:25:12;99483.84;;;16.74
31921;BMP280;66485;52.128;4.436;2023-03-14T08:27:37;99486.22;;;16.72
31921;BMP280;66485;52.128;4.436;2023-03-14T08:30:05;99505.00;;;16.76
31921;BMP280;66485;52.128;4.436;2023-03-14T08:32:31;99505.00;;;16.76
31921;BMP280;66485;52.128;4.436;2023-03-14T08:34:57;99527.72;;;16.78
31921;BMP280;66485;52.128;4.436;2023-03-14T08:37:22;99534.56;;;16.83
31921;BMP280;66485;52.128;4.436;2023-03-14T08:39:49;99546.56;;;16.82
31921;BMP280;66485;52.128;4.436;2023-03-14T08:42:14;99562.66;;;16.85
31921;BMP280;66485;52.128;4.436;2023-03-14T08:44:40;99578.56;;;16.83
31921;BMP280;66485;52.128;4.436;2023-03-14T08:47:05;99587.44;;;16.84
31921;BMP280;66485;52.128;4.436;2023-03-14T08:49:30;99604.09;;;16.82
31921;BMP280;66485;52.128;4.436;2023-03-14T08:51:56;99607.13;;;16.84
31921;BMP280;66485;52.128;4.436;2023-03-14T08:54:21;99607.13;;;16.84
31921;BMP280;66485;52.128;4.436;2023-03-14T08:56:46;99620.31;;;16.82
31921;BMP280;66485;52.128;4.436;2023-03-14T08:59:12;99630.38;;;16.82
31921;BMP280;66485;52.128;4.436;2023-03-14T09:01:37;99634.91;;;16.85
31921;BMP280;66485;52.128;4.436;2023-03-14T09:04:02;99634.91;;;16.85
31921;BMP280;66485;52.128;4.436;2023-03-14T09:06:28;99647.03;;;16.80
31921;BMP280;66485;52.128;4.436;2023-03-14T09:08:53;99654.03;;;16.78
31921;BMP280;66485;52.128;4.436;2023-03-14T09:11:18;99667.97;;;16.76
31921;BMP280;66485;52.128;4.436;2023-03-14T09:13:44;99677.63;;;16.77
31921;BMP280;66485;52.128;4.436;2023-03-14T09:16:09;99703.03;;;16.80
31921;BMP280;66485;52.128;4.436;2023-03-14T09:18:35;99719.34;;;16.76
31921;BMP280;66485;52.128;4.436;2023-03-14T09:21:01;99735.56;;;16.76
31921;BMP280;66485;52.128;4.436;2023-03-14T09:23:27;99735.56;;;16.76
31921;BMP280;66485;52.128;4.436;2023-03-14T09:25:56;99756.56;;;16.72
31921;BMP280;66485;52.128;4.436;2023-03-14T09:28:22;99761.97;;;16.72
31921;BMP280;66485;52.128;4.436;2023-03-14T09:30:47;99761.97;;;16.72
31921;BMP280;66485;52.128;4.436;2023-03-14T09:33:12;99768.34;;;16.78
31921;BMP280;66485;52.128;4.436;2023-03-14T09:35:38;99765.16;;;16.83
31921;BMP280;66485;52.128;4.436;2023-03-14T09:38:03;99765.16;;;16.83
31921;BMP280;66485;52.128;4.436;2023-03-14T09:40:33;99772.81;;;16.85
31921;BMP280;66485;52.128;4.436;2023-03-14T09:42:59;99805.84;;;16.92
31921;BMP280;66485;52.128;4.436;2023-03-14T09:45:31;99803.63;;;17.03
31921;BMP280;66485;52.128;4.436;2023-03-14T09:47:58;99812.97;;;17.28
31921;BMP280;66485;52.128;4.436;2023-03-14T09:50:25;99822.09;;;17.34
31921;BMP280;66485;52.128;4.436;2023-03-14T09:52:55;99822.09;;;17.34
31921;BMP280;66485;52.128;4.436;2023-03-14T09:55:22;99820.50;;;17.20
31921;BMP280;66485;52.128;4.436;2023-03-14T09:57:50;99850.84;;;17.15
31921;BMP280;66485;52.128;4.436;2023-03-14T10:00:21;99850.84;;;17.15
31921;BMP280;66485;52.128;4.436;2023-03-14T10:03:00;99859.59;;;17.19
31921;BMP280;66485;52.128;4.436;2023-03-14T10:05:32;99877.34;;;17.20
31921;BMP280;66485;52.128;4.436;2023-03-14T10:07:58;99895.44;;;17.23
31921;BMP280;66485;52.128;4.436;2023-03-14T10:10:25;99919.88;;;17.20
31921;BMP280;66485;52.128;4.436;2023-03-14T10:12:56;99919.88;;;17.20
31921;BMP280;66485;52.128;4.436;2023-03-14T10:15:25;99919.44;;;17.21
31921;BMP280;66485;52.128;4.436;2023-03-14T10:17:51;99925.22;;;17.23
31921;BMP280;66485;52.128;4.436;2023-03-14T10:20:27;99930.63;;;17.23
31921;BMP280;66485;52.128;4.436;2023-03-14T10:22:58;99947.69;;;17.20
31921;BMP280;66485;52.128;4.436;2023-03-14T10:25:29;99963.19;;;17.20
31921;BMP280;66485;52.128;4.436;2023-03-14T10:27:55;99970.09;;;17.21
31921;BMP280;66485;52.128;4.436;2023-03-14T10:30:46;99981.69;;;17.21
31921;BMP280;66485;52.128;4.436;2023-03-14T10:35:43;99993.69;;;17.20
31921;BMP280;66485;52.128;4.436;2023-03-14T10:38:15;99993.69;;;17.20
31921;BMP280;66485;52.128;4.436;2023-03-14T10:40:46;100003.09;;;17.16
31921;BMP280;66485;52.128;4.436;2023-03-14T10:43:17;100024.56;;;17.23
31921;BMP280;66485;52.128;4.436;2023-03-14T10:45:51;100024.56;;;17.23
31921;BMP280;66485;52.128;4.436;2023-03-14T10:48:21;100027.41;;;17.32
31921;BMP280;66485;52.128;4.436;2023-03-14T10:50:49;100039.44;;;17.47
31921;BMP280;66485;52.128;4.436;2023-03-14T10:53:16;100056.53;;;17.44
31921;BMP280;66485;52.128;4.436;2023-03-14T10:55:43;100071.16;;;17.47
31921;BMP280;66485;52.128;4.436;2023-03-14T10:58:26;100071.16;;;17.47
31921;BMP280;66485;52.128;4.436;2023-03-14T11:01:13;100082.84;;;17.89
31921;BMP280;66485;52.128;4.436;2023-03-14T11:03:43;100101.41;;;18.03
31921;BMP280;66485;52.128;4.436;2023-03-14T11:06:15;100101.41;;;18.03
31921;BMP280;66485;52.128;4.436;2023-03-14T11:09:05;100105.75;;;18.13
31921;BMP280;66485;52.128;4.436;2023-03-14T11:11:32;100141.69;;;18.30
31921;BMP280;66485;52.128;4.436;2023-03-14T11:14:09;100141.94;;;18.35
31921;BMP280;66485;52.128;4.436;2023-03-14T11:22:14;100172.91;;;18.50
31921;BMP280;66485;52.128;4.436;2023-03-14T11:27:44;100184.84;;;18.53
31921;BMP280;66485;52.128;4.436;2023-03-14T11:30:27;100191.69;;;18.70
31921;BMP280;66485;52.128;4.436;2023-03-14T11:33:16;100191.69;;;18.70
31921;BMP280;66485;52.128;4.436;2023-03-14T11:35:47;100211.06;;;18.85
31921;BMP280;66485;52.128;4.436;2023-03-14T11:38:36;100211.06;;;18.85
31921;BMP280;66485;52.128;4.436;2023-03-14T11:41:04;100215.28;;;18.86
31921;BMP280;66485;52.128;4.436;2023-03-14T11:43:35;100225.13;;;18.80
31921;BMP280;66485;52.128;4.436;2023-03-14T11:47:03;100241.66;;;18.98
31921;BMP280;66485;52.128;4.436;2023-03-14T11:49:06;100243.41;;;19.05
31921;BMP280;66485;52.128;4.436;2023-03-14T11:51:39;100260.50;;;19.18
31921;BMP280;66485;52.128;4.436;2023-03-14T11:56:43;100268.50;;;18.96
31921;BMP280;66485;52.128;4.436;2023-03-14T11:59:17;100278.00;;;18.88
31921;BMP280;66485;52.128;4.436;2023-03-14T12:02:00;100277.34;;;18.84
31921;BMP280;66485;52.128;4.436;2023-03-14T12:07:20;100286.81;;;18.92
31921;BMP280;66485;52.128;4.436;2023-03-14T12:09:48;100286.81;;;18.92
31921;BMP280;66485;52.128;4.436;2023-03-14T12:12:18;100284.53;;;18.90
31921;BMP280;66485;52.128;4.436;2023-03-14T12:14:51;100299.56;;;18.79
31921;BMP280;66485;52.128;4.436;2023-03-14T12:17:26;100309.97;;;18.97
31921;BMP280;66485;52.128;4.436;2023-03-14T12:22:45;100324.47;;;18.90
31921;BMP280;66485;52.128;4.436;2023-03-14T12:30:38;100334.88;;;19.33
31921;BMP280;66485;52.128;4.436;2023-03-14T12:35:35;100346.84;;;19.48
31921;BMP280;66485;52.128;4.436;2023-03-14T12:38:03;100347.72;;;19.58
31921;BMP280;66485;52.128;4.436;2023-03-14T12:40:33;100367.41;;;19.62
31921;BMP280;66485;52.128;4.436;2023-03-14T12:43:01;100361.72;;;19.69
31921;BMP280;66485;52.128;4.436;2023-03-14T12:48:06;100363.03;;;19.77
31921;BMP280;66485;52.128;4.436;2023-03-14T12:50:54;100387.81;;;19.79
31921;BMP280;66485;52.128;4.436;2023-03-14T12:53:37;100387.81;;;19.79
31921;BMP280;66485;52.128;4.436;2023-03-14T12:56:28;100386.53;;;19.58
31921;BMP280;66485;52.128;4.436;2023-03-14T13:02:14;100414.47;;;20.09
31921;BMP280;66485;52.128;4.436;2023-03-14T13:04:50;100415.25;;;19.85
31921;BMP280;66485;52.128;4.436;2023-03-14T13:10:16;100427.94;;;19.62
31921;BMP280;66485;52.128;4.436;2023-03-14T13:13:25;100424.78;;;19.64
31921;BMP280;66485;52.128;4.436;2023-03-14T13:15:33;100435.03;;;19.73
31921;BMP280;66485;52.128;4.436;2023-03-14T13:18:02;100447.03;;;19.59
31921;BMP280;66485;52.128;4.436;2023-03-14T13:20:34;100450.88;;;19.74
31921;BMP280;66485;52.128;4.436;2023-03-14T13:23:00;100450.88;;;19.74
31921;BMP280;66485;52.128;4.436;2023-03-14T13:25:30;100468.84;;;19.84
31921;BMP280;66485;52.128;4.436;2023-03-14T13:27:57;100474.78;;;19.79
31921;BMP280;66485;52.128;4.436;2023-03-14T13:30:26;100474.78;;;19.79
31921;BMP280;66485;52.128;4.436;2023-03-14T13:32:53;100481.09;;;19.63
31921;BMP280;66485;52.128;4.436;2023-03-14T13:38:01;100504.75;;;19.34
31921;BMP280;66485;52.128;4.436;2023-03-14T13:40:31;100508.78;;;19.29
31921;BMP280;66485;52.128;4.436;2023-03-14T13:43:10;100513.63;;;19.22
31921;BMP280;66485;52.128;4.436;2023-03-14T13:45:53;100519.59;;;19.17
31921;BMP280;66485;52.128;4.436;2023-03-14T13:48:19;100521.59;;;19.13
31921;BMP280;66485;52.128;4.436;2023-03-14T13:51:12;100521.59;;;19.13
31921;BMP280;66485;52.128;4.436;2023-03-14T13:53:47;100534.09;;;19.10
31921;BMP280;66485;52.128;4.436;2023-03-14T13:56:14;100534.09;;;19.10
31921;BMP280;66485;52.128;4.436;2023-03-14T13:58:40;100536.19;;;19.03
31921;BMP280;66485;52.128;4.436;2023-03-14T14:03:44;100555.28;;;18.99
31921;BMP280;66485;52.128;4.436;2023-03-14T14:08:44;100570.88;;;18.95
31921;BMP280;66485;52.128;4.436;2023-03-14T14:11:17;100568.97;;;18.96
31921;BMP280;66485;52.128;4.436;2023-03-14T14:13:45;100579.81;;;18.96
31921;BMP280;66485;52.128;4.436;2023-03-14T14:16:10;100587.28;;;18.91
31921;BMP280;66485;52.128;4.436;2023-03-14T14:18:36;100594.66;;;18.91
31921;BMP280;66485;52.128;4.436;2023-03-14T14:21:02;100604.38;;;18.88
31921;BMP280;66485;52.128;4.436;2023-03-14T14:23:29;100604.38;;;18.88
31921;BMP280;66485;52.128;4.436;2023-03-14T14:25:57;100603.31;;;18.86
31921;BMP280;66485;52.128;4.436;2023-03-14T14:28:34;100610.94;;;18.91
31921;BMP280;66485;52.128;4.436;2023-03-14T14:33:38;100621.53;;;19.02
31921;BMP280;66485;52.128;4.436;2023-03-14T14:36:05;100621.22;;;19.00
31921;BMP280;66485;52.128;4.436;2023-03-14T14:38:30;100623.16;;;18.99
31921;BMP280;66485;52.128;4.436;2023-03-14T14:41:00;100636.22;;;19.04
31921;BMP280;66485;52.128;4.436;2023-03-14T14:43:27;100638.41;;;19.25
31921;BMP280;66485;52.128;4.436;2023-03-14T14:45:54;100644.28;;;19.24
31921;BMP280;66485;52.128;4.436;2023-03-14T14:48:25;100649.44;;;19.35
31921;BMP280;66485;52.128;4.436;2023-03-14T14:53:29;100650.41;;;19.28
31921;BMP280;66485;52.128;4.436;2023-03-14T14:55:59;100650.81;;;19.26
31921;BMP280;66485;52.128;4.436;2023-03-14T14:58:33;100650.81;;;19.26
31921;BMP280;66485;52.128;4.436;2023-03-14T15:01:04;100673.66;;;19.29
31921;BMP280;66485;52.128;4.436;2023-03-14T15:03:32;100686.47;;;19.28
31921;BMP280;66485;52.128;4.436;2023-03-14T15:05:58;100689.94;;;19.29
31921;BMP280;66485;52.128;4.436;2023-03-14T15:08:24;100689.94;;;19.29
31921;BMP280;66485;52.128;4.436;2023-03-14T15:10:50;100692.72;;;19.58